createdAt,value
2023-04-23T00:03:25.511Z,4.50
2023-04-23T00:07:29.172Z,4.85
2023-04-23T00:11:32.622Z,4.80
2023-04-23T00:15:38.127Z,5.65
2023-04-23T00:19:41.144Z,6.05
2023-04-23T00:23:44.263Z,3.75
2023-04-23T00:27:47.810Z,3.80
2023-04-23T00:31:52.364Z,4.97
2023-04-23T00:35:55.560Z,3.60
2023-04-23T00:39:58.569Z,5.18
2023-04-23T00:44:01.770Z,4.32
2023-04-23T00:48:08.210Z,6.32
2023-04-23T00:52:11.250Z,5.30
2023-04-23T00:56:15.280Z,4.78
2023-04-23T01:00:20.385Z,6.57
2023-04-23T01:04:29.547Z,5.53
2023-04-23T01:08:33.643Z,6.28
2023-04-23T01:12:36.763Z,4.32
2023-04-23T01:16:41.199Z,4.28
2023-04-23T01:20:46.198Z,3.42
2023-04-23T01:24:51.310Z,4.57
2023-04-23T01:28:55.350Z,5.32
2023-04-23T01:32:59.302Z,4.60
2023-04-23T01:37:04.549Z,4.72
2023-04-23T01:41:09.604Z,6.65
2023-04-23T01:45:12.938Z,6.80
2023-04-23T01:49:16.109Z,5.45
2023-04-23T01:53:19.335Z,3.67
2023-04-23T01:57:26.648Z,4.85
2023-04-23T02:01:43.646Z,4.80
2023-04-23T02:05:48.485Z,5.22
2023-04-23T02:09:51.936Z,7.32
2023-04-23T02:13:56.400Z,4.88
2023-04-23T02:17:59.478Z,4.95
2023-04-23T02:22:02.944Z,6.47
2023-04-23T02:26:06.485Z,5.13
2023-04-23T02:30:12.490Z,5.32
2023-04-23T02:34:15.501Z,5.68
2023-04-23T02:38:18.546Z,4.22
2023-04-23T02:42:21.753Z,5.65
2023-04-23T02:46:26.227Z,5.72
2023-04-23T02:50:29.387Z,5.43
2023-04-23T02:54:32.953Z,5.28
2023-04-23T02:58:36.805Z,4.82
2023-04-23T03:02:41.519Z,4.93
2023-04-23T03:06:44.896Z,6.18
2023-04-23T03:10:47.936Z,7.18
2023-04-23T03:14:51.061Z,6.22
2023-04-23T03:18:56.065Z,4.63
2023-04-23T03:23:00.069Z,5.95
2023-04-23T03:27:03.775Z,5.80
2023-04-23T03:31:07.011Z,7.43
2023-04-23T03:35:11.789Z,5.30
2023-04-23T03:39:19.292Z,6.30
2023-04-23T03:43:28.955Z,6.68
2023-04-23T03:47:40.785Z,9.23
2023-04-23T03:51:46.070Z,5.13
2023-04-23T03:55:49.125Z,5.95
2023-04-23T03:59:52.520Z,6.50
2023-04-23T04:03:55.730Z,5.75
2023-04-23T04:08:01.799Z,6.55
2023-04-23T04:12:30.769Z,5.32
2023-04-23T04:16:34.007Z,5.75
2023-04-23T04:20:37.088Z,7.22
2023-04-23T04:24:42.218Z,6.50
2023-04-23T04:28:45.667Z,8.55
2023-04-23T04:32:50.973Z,6.75
2023-04-23T04:36:54.822Z,7.32
2023-04-23T04:41:02.545Z,8.77
2023-04-23T04:45:06.112Z,7.63
2023-04-23T04:49:09.843Z,5.22
2023-04-23T04:53:12.950Z,6.57
2023-04-23T04:57:17.378Z,6.03
2023-04-23T05:01:21.401Z,7.68
2023-04-23T05:05:25.759Z,6.38
2023-04-23T05:09:28.727Z,8.63
2023-04-23T05:13:33.154Z,7.65
2023-04-23T05:17:36.417Z,5.75
2023-04-23T05:21:39.545Z,6.38
2023-04-23T05:25:42.730Z,6.57
2023-04-23T05:29:47.375Z,5.68
2023-04-23T05:33:50.889Z,6.53
2023-04-23T05:37:54.195Z,6.75
2023-04-23T05:41:58.125Z,7.85
2023-04-23T05:46:04.451Z,6.60
2023-04-23T05:50:08.685Z,8.82
2023-04-23T05:54:11.744Z,6.50
2023-04-23T05:58:15.726Z,6.95
2023-04-23T06:02:22.495Z,7.32
2023-04-23T06:06:28.052Z,6.45
2023-04-23T06:10:31.246Z,6.05
2023-04-23T06:14:34.229Z,5.55
2023-04-23T06:18:39.291Z,6.60
2023-04-23T06:22:42.319Z,7.15
2023-04-23T06:26:46.148Z,9.70
2023-04-23T06:30:56.053Z,6.22
2023-04-23T06:35:02.346Z,8.23
2023-04-23T06:39:05.622Z,7.07
2023-04-23T06:43:09.815Z,7.28
2023-04-23T06:47:29.464Z,7.88
2023-04-23T06:51:34.105Z,6.90
2023-04-23T06:55:37.223Z,7.82
2023-04-23T06:59:40.292Z,7.18
2023-04-23T07:03:45.238Z,7.93
2023-04-23T07:07:49.872Z,8.75
2023-04-23T07:11:52.861Z,6.50
2023-04-23T07:15:55.982Z,6.10
2023-04-23T07:19:59.009Z,5.90
2023-04-23T07:24:07.273Z,7.03
2023-04-23T07:28:10.730Z,5.00
2023-04-23T07:32:14.103Z,6.22
2023-04-23T07:36:17.291Z,6.60
2023-04-23T07:40:22.503Z,5.95
2023-04-23T07:44:25.697Z,6.05
2023-04-23T07:48:28.971Z,5.57
2023-04-23T07:52:32.007Z,5.95
2023-04-23T07:56:37.080Z,6.13
2023-04-23T08:00:40.164Z,7.10
2023-04-23T08:04:43.410Z,10.75
2023-04-23T08:08:46.655Z,6.95
2023-04-23T08:12:51.187Z,5.63
2023-04-23T08:16:54.185Z,8.45
2023-04-23T08:20:57.592Z,6.38
2023-04-23T08:25:00.972Z,4.82
2023-04-23T08:29:07.840Z,5.53
2023-04-23T08:33:12.380Z,7.53
2023-04-23T08:37:27.163Z,6.43
2023-04-23T08:41:36.493Z,6.72
2023-04-23T08:45:42.619Z,6.65
2023-04-23T08:49:47.653Z,5.60
2023-04-23T08:53:57.264Z,8.23
2023-04-23T08:58:01.399Z,4.80
2023-04-23T09:02:10.389Z,6.40
2023-04-23T09:06:13.525Z,5.15
2023-04-23T09:10:18.582Z,5.75
2023-04-23T09:14:26.044Z,5.55
2023-04-23T09:18:30.644Z,4.80
2023-04-23T09:22:43.182Z,4.93
2023-04-23T09:26:50.012Z,6.85
2023-04-23T09:30:55.260Z,4.60
2023-04-23T09:34:59.985Z,6.18
2023-04-23T09:39:03.026Z,4.93
2023-04-23T09:43:07.421Z,3.90
2023-04-23T09:47:12.154Z,4.78
2023-04-23T09:51:16.875Z,4.63
2023-04-23T09:55:28.951Z,6.40
2023-04-23T09:59:46.709Z,4.93
2023-04-23T10:03:56.585Z,4.63
2023-04-23T10:08:02.071Z,5.40
2023-04-23T10:12:05.367Z,3.92
2023-04-23T10:16:21.588Z,5.07
2023-04-23T10:20:27.017Z,4.57
2023-04-23T10:24:34.653Z,6.88
2023-04-23T10:28:38.643Z,4.22
2023-04-23T10:32:43.362Z,7.13
2023-04-23T10:36:46.471Z,3.42
2023-04-23T10:40:53.238Z,4.07
2023-04-23T10:45:02.610Z,4.82
2023-04-23T10:49:16.364Z,5.47
2023-04-23T10:53:21.482Z,3.38
2023-04-23T10:57:25.928Z,3.80
2023-04-23T11:01:31.188Z,4.45
2023-04-23T11:05:36.784Z,4.70
2023-04-23T11:09:42.730Z,3.38
2023-04-23T11:13:55.175Z,6.07
2023-04-23T11:18:02.057Z,3.78
2023-04-23T11:22:08.297Z,5.15
2023-04-23T11:26:11.399Z,5.90
2023-04-23T11:30:17.713Z,3.20
2023-04-23T11:34:21.130Z,5.47
2023-04-23T11:38:24.181Z,3.50
2023-04-23T11:42:28.285Z,3.80
2023-04-23T11:46:32.887Z,4.47
2023-04-23T11:50:37.363Z,4.25
2023-04-23T11:54:42.418Z,3.38
2023-04-23T11:58:45.457Z,2.92
2023-04-23T12:02:54.762Z,4.05
2023-04-23T12:06:59.728Z,3.40
2023-04-23T12:11:06.374Z,3.47
2023-04-23T12:15:10.236Z,3.05
2023-04-23T12:19:16.658Z,4.43
2023-04-23T12:23:19.677Z,3.55
2023-04-23T12:27:23.239Z,4.68
2023-04-23T12:31:27.812Z,4.18
2023-04-23T12:35:42.975Z,3.58
2023-04-23T12:39:45.965Z,3.38
2023-04-23T12:43:50.395Z,2.60
2023-04-23T12:47:53.482Z,4.20
2023-04-23T12:52:01.288Z,4.47
2023-04-23T12:56:05.003Z,3.15
2023-04-23T13:00:09.352Z,3.05
2023-04-23T13:04:12.656Z,3.03
2023-04-23T13:08:17.071Z,3.20
2023-04-23T13:12:20.043Z,2.90
2023-04-23T13:16:23.299Z,3.83
2023-04-23T13:20:26.903Z,2.92
2023-04-23T13:24:31.415Z,2.40
2023-04-23T13:28:34.409Z,3.08
2023-04-23T13:32:37.518Z,2.80
2023-04-23T13:36:42.329Z,3.28
2023-04-23T13:40:46.953Z,2.95
2023-04-23T13:44:49.926Z,3.13
2023-04-23T13:48:54.600Z,3.95
2023-04-23T13:52:57.967Z,3.58
2023-04-23T13:57:02.649Z,2.78
2023-04-23T14:01:05.898Z,2.97
2023-04-23T14:05:10.071Z,3.78
2023-04-23T14:09:13.097Z,4.13
2023-04-23T14:13:17.666Z,4.35
2023-04-23T14:17:20.681Z,3.85
2023-04-23T14:21:23.979Z,2.70
2023-04-23T14:25:31.665Z,3.97
2023-04-23T14:29:42.512Z,3.88
2023-04-23T14:33:45.644Z,2.85
2023-04-23T14:37:48.837Z,2.78
2023-04-23T14:41:51.865Z,2.95
2023-04-23T14:45:56.347Z,2.92
2023-04-23T14:50:01.212Z,3.88
2023-04-23T14:54:04.988Z,3.53
2023-04-23T14:58:08.015Z,3.13
2023-04-23T15:02:12.841Z,5.00
2023-04-23T15:06:15.989Z,4.07
2023-04-23T15:10:20.480Z,3.17
2023-04-23T15:14:27.667Z,3.33
2023-04-23T15:18:33.876Z,3.40
2023-04-23T15:22:37.052Z,4.50
2023-04-23T15:26:40.615Z,4.13
2023-04-23T15:30:44.898Z,3.15
2023-04-23T15:34:49.426Z,3.78
2023-04-23T15:38:52.446Z,3.40
2023-04-23T15:42:55.532Z,3.22
2023-04-23T15:47:01.298Z,3.58
2023-04-23T15:51:06.333Z,4.13
2023-04-23T15:55:10.190Z,2.63
2023-04-23T15:59:13.696Z,2.80
2023-04-23T16:03:17.054Z,2.85
2023-04-23T16:07:21.808Z,3.50
2023-04-23T16:11:27.624Z,3.78
2023-04-23T16:15:30.860Z,2.53
2023-04-23T16:19:33.863Z,3.70
2023-04-23T16:23:38.606Z,3.33
2023-04-23T16:27:41.693Z,4.22
2023-04-23T16:31:44.778Z,3.75
2023-04-23T16:35:47.781Z,3.47
2023-04-23T16:39:52.240Z,4.38
2023-04-23T16:43:55.215Z,3.15
2023-04-23T16:47:58.385Z,4.45
2023-04-23T16:52:01.637Z,2.95
2023-04-23T16:56:07.176Z,3.30
2023-04-23T17:00:12.487Z,4.57
2023-04-23T17:04:15.717Z,2.33
2023-04-23T17:08:18.986Z,3.63
2023-04-23T17:12:23.479Z,3.15
2023-04-23T17:16:27.532Z,3.47
2023-04-23T17:20:35.136Z,3.83
2023-04-23T17:24:39.082Z,2.85
2023-04-23T17:28:43.798Z,3.25
2023-04-23T17:32:47.005Z,2.95
2023-04-23T17:36:50.185Z,3.33
2023-04-23T17:40:54.047Z,3.85
2023-04-23T17:44:58.498Z,3.72
2023-04-23T17:49:01.649Z,5.38
2023-04-23T17:53:05.491Z,4.18
2023-04-23T17:57:09.793Z,3.88
2023-04-23T18:01:14.080Z,4.90
2023-04-23T18:05:18.300Z,3.97
2023-04-23T18:09:21.670Z,3.35
2023-04-23T18:13:24.729Z,3.65
2023-04-23T18:17:29.572Z,2.95
2023-04-23T18:21:33.798Z,3.33
2023-04-23T18:25:37.220Z,4.43
2023-04-23T18:29:41.356Z,4.38
2023-04-23T18:33:55.128Z,3.20
2023-04-23T18:38:06.920Z,3.50
2023-04-23T18:42:11.051Z,2.22
2023-04-23T18:46:14.152Z,1.88
2023-04-23T18:50:44.907Z,3.72
2023-04-23T18:54:47.870Z,2.20
2023-04-23T18:58:51.307Z,2.15
2023-04-23T19:02:54.499Z,3.38
2023-04-23T19:06:58.990Z,1.45
2023-04-23T19:11:01.987Z,1.40
2023-04-23T19:15:06.015Z,1.55
2023-04-23T19:19:09.256Z,2.47
2023-04-23T19:23:13.762Z,1.42
2023-04-23T19:27:17.130Z,2.35
2023-04-23T19:31:20.258Z,1.40
2023-04-23T19:35:23.414Z,2.15
2023-04-23T19:39:27.922Z,1.63
2023-04-23T19:43:31.008Z,1.77
2023-04-23T19:47:38.652Z,1.98
2023-04-23T19:51:41.974Z,2.15
2023-04-23T19:55:46.412Z,2.20
2023-04-23T19:59:49.594Z,2.63
2023-04-23T20:03:53.824Z,4.28
2023-04-23T20:07:57.123Z,2.88
2023-04-23T20:12:01.995Z,3.80
2023-04-23T20:16:05.261Z,5.40
2023-04-23T20:20:11.112Z,3.60
2023-04-23T20:24:14.988Z,3.97
2023-04-23T20:28:19.723Z,3.00
2023-04-23T20:32:22.739Z,3.63
2023-04-23T20:36:28.845Z,3.35
2023-04-23T20:40:34.436Z,4.55
2023-04-23T20:44:41.780Z,3.58
2023-04-23T20:48:44.767Z,4.65
2023-04-23T20:52:47.885Z,4.15
2023-04-23T20:56:54.054Z,4.10
2023-04-23T21:00:59.271Z,3.15
2023-04-23T21:05:02.299Z,4.20
2023-04-23T21:09:05.712Z,3.50
2023-04-23T21:13:11.112Z,4.47
2023-04-23T21:17:16.082Z,2.67
2023-04-23T21:21:19.173Z,4.40
2023-04-23T21:25:22.320Z,3.95
2023-04-23T21:29:26.461Z,3.30
2023-04-23T21:33:30.876Z,3.05
2023-04-23T21:37:33.950Z,3.65
2023-04-23T21:41:37.217Z,2.85
2023-04-23T21:45:40.483Z,3.42
2023-04-23T21:49:45.000Z,3.03
2023-04-23T21:53:48.081Z,2.85
2023-04-23T21:57:51.332Z,4.38
2023-04-23T22:01:54.540Z,2.60
2023-04-23T22:05:59.367Z,2.45
2023-04-23T22:10:02.763Z,2.05
2023-04-23T22:14:06.379Z,1.98
2023-04-23T22:18:09.667Z,2.40
2023-04-23T22:22:14.164Z,3.10
2023-04-23T22:26:17.221Z,2.72
2023-04-23T22:30:20.530Z,2.08
2023-04-23T22:34:24.951Z,4.05
2023-04-23T22:38:29.571Z,3.17
2023-04-23T22:42:32.538Z,3.17
2023-04-23T22:46:35.859Z,2.90
2023-04-23T22:50:40.060Z,3.67
2023-04-23T22:54:45.094Z,6.97
2023-04-23T22:58:48.069Z,3.65
2023-04-23T23:02:51.537Z,3.33
2023-04-23T23:06:54.600Z,3.22
2023-04-23T23:10:59.012Z,3.53
2023-04-23T23:15:02.662Z,3.22
2023-04-23T23:19:05.989Z,2.60
2023-04-23T23:23:08.994Z,3.25
2023-04-23T23:27:13.527Z,4.40
2023-04-23T23:31:16.980Z,3.40
2023-04-23T23:35:20.226Z,3.60
2023-04-23T23:39:23.444Z,2.88
2023-04-23T23:43:27.924Z,3.72
2023-04-23T23:47:31.000Z,3.13
2023-04-23T23:51:34.247Z,5.03
2023-04-23T23:55:38.722Z,4.20
2023-04-23T23:59:43.585Z,2.85
